createdAt,value
2022-11-14T00:01:21.535Z,24.17
2022-11-14T00:03:51.610Z,28.13
2022-11-14T00:06:19.556Z,23.90
2022-11-14T00:08:47.803Z,26.27
2022-11-14T00:11:15.907Z,24.80
2022-11-14T00:13:45.219Z,26.50
2022-11-14T00:16:13.171Z,24.43
2022-11-14T00:18:41.255Z,24.90
2022-11-14T00:21:09.216Z,27.93
2022-11-14T00:23:37.479Z,26.70
2022-11-14T00:26:05.607Z,23.13
2022-11-14T00:28:33.815Z,25.97
2022-11-14T00:31:03.185Z,24.93
2022-11-14T00:33:31.187Z,26.37
2022-11-14T00:35:59.279Z,24.47
2022-11-14T00:38:27.521Z,27.57
2022-11-14T00:40:55.805Z,27.73
2022-11-14T00:43:23.776Z,26.97
2022-11-14T00:45:51.683Z,28.33
2022-11-14T00:48:21.041Z,25.23
2022-11-14T00:50:49.305Z,28.43
2022-11-14T00:53:17.392Z,26.77
2022-11-14T00:55:45.919Z,25.63
2022-11-14T00:58:13.864Z,27.10
2022-11-14T01:00:41.912Z,25.53
2022-11-14T01:03:10.620Z,26.63
2022-11-14T01:05:43.425Z,24.10
2022-11-14T01:08:11.925Z,26.23
2022-11-14T01:10:41.741Z,26.87
2022-11-14T01:13:09.996Z,25.93
2022-11-14T01:15:41.303Z,26.43
2022-11-14T01:18:09.710Z,25.97
2022-11-14T01:20:40.248Z,26.57
2022-11-14T01:23:10.664Z,25.93
2022-11-14T01:25:39.552Z,24.97
2022-11-14T01:28:08.642Z,28.17
2022-11-14T01:30:37.244Z,25.93
2022-11-14T01:33:06.543Z,26.20
2022-11-14T01:35:35.539Z,23.17
2022-11-14T01:38:04.523Z,24.07
2022-11-14T01:40:34.490Z,26.07
2022-11-14T01:43:28.360Z,27.40
2022-11-14T01:45:59.051Z,25.80
2022-11-14T01:48:32.750Z,24.83
2022-11-14T01:51:05.163Z,25.87
2022-11-14T01:53:33.643Z,25.40
2022-11-14T01:56:06.834Z,24.27
2022-11-14T01:58:38.160Z,23.47
2022-11-14T02:01:06.382Z,25.03
2022-11-14T02:03:37.066Z,24.53
2022-11-14T02:06:07.820Z,27.90
2022-11-14T02:08:36.388Z,25.00
2022-11-14T02:11:06.106Z,26.67
2022-11-14T02:13:34.363Z,22.70
2022-11-14T02:16:02.455Z,27.50
2022-11-14T02:18:30.781Z,28.10
2022-11-14T02:21:00.957Z,26.03
2022-11-14T02:23:31.093Z,24.73
2022-11-14T02:25:59.776Z,25.23
2022-11-14T02:28:28.751Z,26.83
2022-11-14T02:30:57.351Z,25.67
2022-11-14T02:33:25.432Z,29.20
2022-11-14T02:35:53.554Z,22.60
2022-11-14T02:38:22.845Z,30.90
2022-11-14T02:40:50.829Z,24.53
2022-11-14T02:43:18.858Z,26.87
2022-11-14T02:45:46.886Z,28.33
2022-11-14T02:48:15.074Z,25.47
2022-11-14T02:50:43.150Z,26.63
2022-11-14T02:53:11.439Z,26.43
2022-11-14T02:55:40.799Z,24.03
2022-11-14T02:58:08.979Z,24.20
2022-11-14T03:00:53.330Z,28.40
2022-11-14T03:03:25.074Z,26.53
2022-11-14T03:05:53.467Z,27.03
2022-11-14T03:08:21.503Z,24.23
2022-11-14T03:10:51.332Z,25.07
2022-11-14T03:13:19.398Z,30.77
2022-11-14T03:15:47.509Z,23.83
2022-11-14T03:18:15.868Z,24.37
2022-11-14T03:20:43.874Z,23.50
2022-11-14T03:23:12.188Z,25.53
2022-11-14T03:25:40.349Z,30.63
2022-11-14T03:28:09.744Z,24.37
2022-11-14T03:30:38.018Z,31.77
2022-11-14T03:33:06.101Z,25.57
2022-11-14T03:35:34.068Z,28.97
2022-11-14T03:38:02.071Z,26.10
2022-11-14T03:40:30.902Z,23.47
2022-11-14T03:42:59.013Z,23.53
2022-11-14T03:45:28.580Z,26.60
2022-11-14T03:47:56.680Z,27.97
2022-11-14T03:50:24.904Z,27.23
2022-11-14T03:52:52.934Z,23.50
2022-11-14T03:55:21.365Z,26.63
2022-11-14T03:57:49.367Z,23.07
2022-11-14T04:00:18.145Z,27.37
2022-11-14T04:02:47.707Z,26.00
2022-11-14T04:05:15.834Z,27.67
2022-11-14T04:07:43.867Z,25.07
2022-11-14T04:10:11.924Z,24.27
2022-11-14T04:12:39.975Z,26.17
2022-11-14T04:15:09.038Z,28.07
2022-11-14T04:17:39.951Z,25.77
2022-11-14T04:20:10.833Z,26.97
2022-11-14T04:22:38.954Z,29.03
2022-11-14T04:25:08.655Z,25.63
2022-11-14T04:27:36.957Z,25.53
2022-11-14T04:30:06.220Z,28.77
2022-11-14T04:32:34.206Z,26.27
2022-11-14T04:35:02.183Z,26.97
2022-11-14T04:37:31.636Z,26.00
2022-11-14T04:40:02.369Z,24.43
2022-11-14T04:42:30.444Z,25.43
2022-11-14T04:44:58.535Z,27.03
2022-11-14T04:47:26.835Z,25.67
2022-11-14T04:49:54.862Z,25.80
2022-11-14T04:52:22.994Z,26.87
2022-11-14T04:54:52.322Z,25.10
2022-11-14T04:57:20.260Z,30.33
2022-11-14T04:59:48.436Z,29.87
2022-11-14T05:02:16.527Z,29.63
2022-11-14T05:04:45.718Z,29.57
2022-11-14T05:07:14.212Z,26.20
2022-11-14T05:09:42.225Z,24.43
2022-11-14T05:12:11.541Z,28.87
2022-11-14T05:14:39.634Z,25.13
2022-11-14T05:17:07.616Z,25.43
2022-11-14T05:19:35.612Z,28.27
2022-11-14T05:22:04.049Z,36.47
2022-11-14T05:24:32.188Z,27.10
2022-11-14T05:27:00.441Z,33.23
2022-11-14T05:29:29.946Z,33.03
2022-11-14T05:31:58.090Z,26.83
2022-11-14T05:34:26.235Z,30.20
2022-11-14T05:36:54.561Z,35.53
2022-11-14T05:39:22.575Z,31.10
2022-11-14T05:41:50.493Z,29.50
2022-11-14T05:44:18.496Z,29.87
2022-11-14T05:46:48.144Z,32.70
2022-11-14T05:49:20.721Z,28.80
2022-11-14T05:51:49.936Z,26.60
2022-11-14T05:54:17.947Z,28.77
2022-11-14T05:56:45.947Z,26.10
2022-11-14T05:59:14.037Z,32.10
2022-11-14T06:01:42.090Z,33.17
2022-11-14T06:04:13.056Z,33.87
2022-11-14T06:06:41.133Z,32.03
2022-11-14T06:09:09.328Z,29.10
2022-11-14T06:11:37.255Z,28.77
2022-11-14T06:14:10.506Z,37.10
2022-11-14T06:16:39.316Z,29.43
2022-11-14T06:19:07.685Z,33.77
2022-11-14T06:21:37.106Z,28.50
2022-11-14T06:24:05.695Z,28.80
2022-11-14T06:26:34.437Z,31.67
2022-11-14T06:29:02.449Z,35.27
2022-11-14T06:31:30.808Z,30.40
2022-11-14T06:34:00.769Z,30.97
2022-11-14T06:36:30.418Z,33.90
2022-11-14T06:38:59.766Z,28.47
2022-11-14T06:41:27.857Z,28.80
2022-11-14T06:43:55.946Z,36.07
2022-11-14T06:46:24.616Z,34.80
2022-11-14T06:48:53.064Z,32.10
2022-11-14T06:51:21.051Z,30.07
2022-11-14T06:53:49.036Z,30.50
2022-11-14T06:56:20.286Z,31.77
2022-11-14T06:58:49.799Z,32.40
2022-11-14T07:01:19.509Z,32.93
2022-11-14T07:03:48.128Z,30.80
2022-11-14T07:06:19.136Z,31.83
2022-11-14T07:08:47.558Z,30.63
2022-11-14T07:11:22.925Z,29.87
2022-11-14T07:13:53.504Z,30.03
2022-11-14T07:16:24.575Z,30.63
2022-11-14T07:18:52.528Z,35.97
2022-11-14T07:21:20.806Z,34.50
2022-11-14T07:23:49.057Z,31.67
2022-11-14T07:26:17.044Z,28.80
2022-11-14T07:28:51.822Z,33.80
2022-11-14T07:31:22.895Z,33.77
2022-11-14T07:33:50.982Z,36.63
2022-11-14T07:36:19.295Z,34.13
2022-11-14T07:38:47.689Z,32.87
2022-11-14T07:41:17.231Z,38.57
2022-11-14T07:43:45.444Z,33.30
2022-11-14T07:46:14.814Z,33.87
2022-11-14T07:48:44.156Z,34.47
2022-11-14T07:51:16.421Z,32.63
2022-11-14T07:53:44.718Z,31.87
2022-11-14T07:56:13.045Z,31.50
2022-11-14T07:58:42.433Z,32.77
2022-11-14T08:01:13.315Z,35.83
2022-11-14T08:03:46.082Z,32.90
2022-11-14T08:06:15.697Z,31.87
2022-11-14T08:08:43.832Z,32.87
2022-11-14T08:11:12.415Z,35.00
2022-11-14T08:13:40.383Z,36.70
2022-11-14T08:16:13.378Z,35.97
2022-11-14T08:18:43.578Z,38.57
2022-11-14T08:21:11.867Z,36.97
2022-11-14T08:23:39.899Z,46.47
2022-11-14T08:26:08.016Z,40.57
2022-11-14T08:28:36.001Z,33.37
2022-11-14T08:31:05.123Z,33.70
2022-11-14T08:33:33.239Z,38.80
2022-11-14T08:36:03.649Z,32.20
2022-11-14T08:38:33.618Z,38.47
2022-11-14T08:41:02.227Z,38.07
2022-11-14T08:43:30.797Z,41.20
2022-11-14T08:46:01.910Z,37.80
2022-11-14T08:48:30.904Z,32.87
2022-11-14T08:50:59.646Z,33.57
2022-11-14T08:53:29.282Z,35.80
2022-11-14T08:55:57.268Z,34.13
2022-11-14T08:58:25.233Z,33.13
2022-11-14T09:00:53.576Z,45.07
2022-11-14T09:03:21.768Z,34.10
2022-11-14T09:05:53.202Z,41.93
2022-11-14T09:08:21.948Z,36.67
2022-11-14T09:10:51.498Z,32.57
2022-11-14T09:13:19.669Z,41.87
2022-11-14T09:15:47.775Z,33.77
2022-11-14T09:18:16.407Z,37.30
2022-11-14T09:20:44.358Z,35.37
2022-11-14T09:23:12.733Z,31.70
2022-11-14T09:25:40.730Z,36.13
2022-11-14T09:28:11.028Z,37.50
2022-11-14T09:30:40.242Z,34.27
2022-11-14T09:33:11.637Z,34.03
2022-11-14T09:35:40.322Z,34.33
2022-11-14T09:38:10.475Z,38.43
2022-11-14T09:40:53.458Z,33.73
2022-11-14T09:43:43.219Z,34.50
2022-11-14T09:46:20.251Z,32.77
2022-11-14T09:48:48.607Z,35.37
2022-11-14T09:51:20.691Z,42.43
2022-11-14T09:53:54.568Z,41.53
2022-11-14T09:56:26.357Z,39.07
2022-11-14T09:58:57.527Z,40.03
2022-11-14T10:01:37.534Z,35.23
2022-11-14T10:04:15.539Z,34.83
2022-11-14T10:06:52.631Z,35.43
2022-11-14T10:09:42.734Z,42.87
2022-11-14T10:12:16.427Z,39.40
2022-11-14T10:15:11.821Z,35.60
2022-11-14T10:18:04.067Z,32.17
2022-11-14T10:20:38.195Z,35.07
2022-11-14T10:23:24.073Z,28.47
2022-11-14T10:25:57.299Z,38.00
2022-11-14T10:28:43.112Z,34.10
2022-11-14T10:31:24.327Z,35.50
2022-11-14T10:34:00.685Z,30.63
2022-11-14T10:36:50.771Z,29.57
2022-11-14T10:39:23.210Z,30.60
2022-11-14T10:42:01.028Z,29.13
2022-11-14T10:44:37.254Z,37.60
2022-11-14T10:47:13.978Z,31.57
2022-11-14T10:49:42.962Z,37.70
2022-11-14T10:52:15.742Z,28.17
2022-11-14T10:54:48.658Z,30.23
2022-11-14T10:57:18.875Z,33.73
2022-11-14T10:59:47.281Z,27.80
2022-11-14T11:02:18.281Z,33.67
2022-11-14T11:04:47.066Z,29.20
2022-11-14T11:07:40.257Z,39.70
2022-11-14T11:10:37.543Z,27.30
2022-11-14T11:13:06.123Z,29.30
2022-11-14T11:15:41.253Z,33.17
2022-11-14T11:18:27.893Z,30.50
2022-11-14T11:21:11.098Z,29.87
2022-11-14T11:23:49.942Z,26.73
2022-11-14T11:26:20.889Z,27.00
2022-11-14T11:29:04.340Z,24.53
2022-11-14T11:31:51.489Z,26.87
2022-11-14T11:34:26.955Z,26.30
2022-11-14T11:36:59.615Z,26.07
2022-11-14T11:39:31.228Z,28.50
2022-11-14T11:42:10.891Z,30.57
2022-11-14T11:44:44.827Z,28.80
2022-11-14T11:47:16.520Z,31.93
2022-11-14T11:49:53.298Z,27.33
2022-11-14T11:52:32.096Z,26.10
2022-11-14T11:55:05.077Z,29.17
2022-11-14T11:57:37.820Z,28.70
2022-11-14T12:00:09.384Z,27.00
2022-11-14T12:02:49.328Z,27.53
2022-11-14T12:05:26.878Z,32.47
2022-11-14T12:08:04.264Z,26.97
2022-11-14T12:10:37.397Z,31.07
2022-11-14T12:13:33.581Z,26.10
2022-11-14T12:16:23.639Z,27.90
2022-11-14T12:19:26.018Z,27.47
2022-11-14T12:22:12.388Z,28.70
2022-11-14T12:25:00.187Z,31.67
2022-11-14T12:27:43.381Z,25.80
2022-11-14T12:30:16.856Z,29.20
2022-11-14T12:32:49.340Z,26.07
2022-11-14T12:35:21.437Z,24.03
2022-11-14T12:37:55.844Z,25.93
2022-11-14T12:40:28.822Z,26.17
2022-11-14T12:42:58.298Z,31.40
2022-11-14T12:45:58.425Z,26.43
2022-11-14T12:48:33.173Z,30.67
2022-11-14T12:51:02.102Z,28.23
2022-11-14T12:53:47.099Z,29.13
2022-11-14T12:56:52.708Z,27.33
2022-11-14T12:59:38.920Z,28.30
2022-11-14T13:02:45.748Z,27.53
2022-11-14T13:05:49.284Z,23.73
2022-11-14T13:08:34.971Z,24.83
2022-11-14T13:11:55.055Z,27.73
2022-11-14T13:14:40.742Z,24.57
2022-11-14T13:17:41.861Z,29.50
2022-11-14T13:20:49.732Z,29.77
2022-11-14T13:23:51.650Z,28.47
2022-11-14T13:26:55.145Z,27.30
2022-11-14T13:30:00.225Z,26.73
2022-11-14T13:32:58.249Z,26.17
2022-11-14T13:35:46.883Z,27.53
2022-11-14T13:38:45.569Z,24.70
2022-11-14T13:41:47.587Z,25.97
2022-11-14T13:45:01.418Z,33.97
2022-11-14T13:48:12.275Z,27.23
2022-11-14T13:50:43.012Z,30.63
2022-11-14T13:53:17.049Z,25.10
2022-11-14T13:55:57.240Z,27.70
2022-11-14T13:58:42.864Z,30.73
2022-11-14T14:01:23.384Z,26.13
2022-11-14T14:04:07.488Z,26.90
2022-11-14T14:06:46.060Z,26.30
2022-11-14T14:09:23.125Z,33.70
2022-11-14T14:12:21.985Z,33.07
2022-11-14T14:15:10.075Z,23.47
2022-11-14T14:17:50.629Z,25.10
2022-11-14T14:20:32.666Z,26.60
2022-11-14T14:23:09.967Z,27.67
2022-11-14T14:25:46.674Z,24.47
2022-11-14T14:28:21.714Z,24.67
2022-11-14T14:31:10.796Z,25.63
2022-11-14T14:33:44.840Z,31.27
2022-11-14T14:36:21.769Z,25.70
2022-11-14T14:38:50.761Z,23.10
2022-11-14T14:41:20.994Z,22.83
2022-11-14T14:43:56.087Z,25.87
2022-11-14T14:46:30.217Z,22.20
2022-11-14T14:49:03.683Z,28.43
2022-11-14T14:51:33.280Z,29.50
2022-11-14T14:54:01.417Z,29.40
2022-11-14T14:56:29.831Z,32.20
2022-11-14T14:58:58.228Z,25.83
2022-11-14T15:01:32.872Z,25.30
2022-11-14T15:04:06.013Z,32.70
2022-11-14T15:06:36.376Z,29.17
2022-11-14T15:09:11.176Z,26.00
2022-11-14T15:11:43.654Z,26.27
2022-11-14T15:14:15.085Z,30.93
2022-11-14T15:16:43.944Z,30.97
2022-11-14T15:19:16.083Z,28.70
2022-11-14T15:21:44.352Z,27.47
2022-11-14T15:24:16.617Z,27.23
2022-11-14T15:26:46.004Z,28.33
2022-11-14T15:29:19.583Z,24.53
2022-11-14T15:31:49.840Z,32.57
2022-11-14T15:34:28.824Z,27.53
2022-11-14T15:37:23.438Z,28.30
2022-11-14T15:39:51.466Z,25.33
2022-11-14T15:42:29.374Z,24.60
2022-11-14T15:44:57.413Z,32.00
2022-11-14T15:47:26.763Z,27.33
2022-11-14T15:50:00.481Z,29.97
2022-11-14T15:52:36.136Z,26.50
2022-11-14T15:55:10.503Z,21.90
2022-11-14T15:57:39.173Z,25.17
2022-11-14T16:00:08.324Z,26.53
2022-11-14T16:02:46.200Z,25.13
2022-11-14T16:05:16.865Z,26.93
2022-11-14T16:07:45.020Z,28.07
2022-11-14T16:10:15.915Z,29.23
2022-11-14T16:12:47.969Z,25.90
2022-11-14T16:15:20.481Z,25.70
2022-11-14T16:17:50.131Z,27.17
2022-11-14T16:20:21.710Z,24.90
2022-11-14T16:22:50.787Z,20.07
2022-11-14T16:25:20.973Z,23.10
2022-11-14T16:27:49.045Z,24.43
2022-11-14T16:30:19.324Z,23.97
2022-11-14T16:32:49.305Z,29.47
2022-11-14T16:35:20.366Z,29.63
2022-11-14T16:37:48.937Z,29.50
2022-11-14T16:40:19.389Z,35.67
2022-11-14T16:42:48.024Z,28.17
2022-11-14T16:45:16.334Z,33.63
2022-11-14T16:47:44.748Z,26.17
2022-11-14T16:50:12.712Z,27.40
2022-11-14T16:52:42.043Z,26.80
2022-11-14T16:55:11.500Z,25.80
2022-11-14T16:57:39.965Z,26.67
2022-11-14T17:00:10.588Z,24.87
2022-11-14T17:02:39.301Z,26.70
2022-11-14T17:05:09.292Z,27.37
2022-11-14T17:07:37.660Z,29.03
2022-11-14T17:10:08.386Z,28.00
2022-11-14T17:12:36.466Z,28.00
2022-11-14T17:15:04.973Z,26.97
2022-11-14T17:17:33.143Z,26.00
2022-11-14T17:20:01.133Z,26.50
2022-11-14T17:22:29.642Z,29.13
2022-11-14T17:24:57.736Z,24.83
2022-11-14T17:27:27.083Z,26.07
2022-11-14T17:29:55.040Z,26.40
2022-11-14T17:32:23.379Z,22.50
2022-11-14T17:34:51.426Z,25.07
2022-11-14T17:37:19.438Z,25.83
2022-11-14T17:39:47.575Z,24.77
2022-11-14T17:42:15.968Z,23.43
2022-11-14T17:44:45.304Z,25.30
2022-11-14T17:47:13.496Z,27.67
2022-11-14T17:49:41.456Z,26.57
2022-11-14T17:52:09.489Z,26.20
2022-11-14T17:54:38.880Z,33.67
2022-11-14T17:57:07.702Z,25.20
2022-11-14T17:59:36.470Z,26.27
2022-11-14T18:02:06.163Z,27.63
2022-11-14T18:04:34.179Z,27.03
2022-11-14T18:07:02.279Z,27.70
2022-11-14T18:09:30.515Z,27.30
2022-11-14T18:11:58.587Z,23.67
2022-11-14T18:14:26.630Z,28.93
2022-11-14T18:19:44.115Z,27.23
2022-11-14T18:22:13.079Z,33.27
2022-11-14T18:24:46.708Z,28.50
2022-11-14T18:27:15.048Z,29.77
2022-11-14T18:29:43.451Z,31.87
2022-11-14T18:32:11.482Z,26.63
2022-11-14T18:34:40.865Z,27.70
2022-11-14T18:37:10.226Z,28.57
2022-11-14T18:39:38.314Z,26.83
2022-11-14T18:42:06.855Z,25.93
2022-11-14T18:45:01.451Z,28.80
2022-11-14T18:47:31.721Z,28.00
2022-11-14T18:50:04.919Z,25.80
2022-11-14T18:55:56.930Z,28.93
2022-11-14T18:58:31.414Z,25.43
2022-11-14T19:01:00.922Z,27.90
2022-11-14T19:03:42.544Z,25.70
2022-11-14T19:06:16.472Z,28.20
2022-11-14T19:08:47.235Z,23.60
2022-11-14T19:11:39.106Z,24.93
2022-11-14T19:14:24.347Z,24.73
2022-11-14T19:17:06.793Z,25.57
2022-11-14T19:54:44.973Z,25.93
2022-11-14T19:57:25.837Z,24.43
2022-11-14T19:59:55.172Z,26.10
2022-11-14T20:02:31.570Z,26.63
2022-11-14T20:05:02.922Z,26.90
2022-11-14T20:07:35.384Z,25.93
2022-11-14T20:10:04.332Z,24.87
2022-11-14T20:12:38.969Z,24.00
2022-11-14T20:15:10.420Z,25.00
2022-11-14T20:17:46.791Z,26.23
2022-11-14T20:20:20.283Z,23.20
2022-11-14T20:22:52.593Z,26.57
2022-11-14T20:25:35.989Z,23.43
2022-11-14T20:31:03.774Z,25.67
2022-11-14T20:33:40.047Z,22.93
2022-11-14T20:36:15.156Z,23.27
2022-11-14T20:38:48.829Z,25.47
2022-11-14T20:41:22.645Z,24.97
2022-11-14T20:43:52.988Z,22.00
2022-11-14T20:46:23.110Z,25.43
2022-11-14T20:52:32.832Z,27.50
2022-11-14T20:55:11.556Z,23.10
2022-11-14T20:57:40.650Z,24.30
2022-11-14T21:00:12.400Z,21.23
2022-11-14T21:02:41.950Z,22.20
2022-11-14T21:05:12.034Z,21.50
2022-11-14T21:07:41.760Z,21.20
2022-11-14T21:10:31.287Z,20.60
2022-11-14T21:13:30.183Z,23.70
2022-11-14T21:16:05.543Z,21.83
2022-11-14T21:18:35.768Z,21.07
2022-11-14T21:21:14.181Z,22.30
2022-11-14T21:23:49.359Z,19.87
2022-11-14T21:26:28.385Z,19.87
2022-11-14T21:32:07.988Z,19.17
2022-11-14T21:34:47.602Z,19.17
2022-11-14T21:37:24.302Z,22.37
2022-11-14T21:39:58.882Z,21.77
2022-11-14T21:48:41.251Z,20.63
2022-11-14T21:51:50.479Z,18.47
2022-11-14T21:57:26.377Z,21.03
2022-11-14T21:59:56.591Z,20.57
2022-11-14T22:02:45.833Z,21.20
2022-11-14T22:05:15.526Z,19.20
2022-11-14T22:07:43.634Z,21.13
2022-11-14T22:10:12.274Z,20.10
2022-11-14T22:12:40.727Z,20.03
2022-11-14T22:15:10.800Z,20.37
2022-11-14T22:17:39.781Z,19.60
2022-11-14T22:20:10.213Z,20.57
2022-11-14T22:22:40.349Z,20.77
2022-11-14T22:25:09.754Z,18.77
2022-11-14T22:27:38.846Z,19.43
2022-11-14T22:30:08.403Z,19.73
2022-11-14T22:32:37.467Z,24.00
2022-11-14T22:35:09.734Z,20.57
2022-11-14T22:37:40.948Z,19.83
2022-11-14T22:40:12.051Z,19.77
2022-11-14T22:42:40.862Z,18.23
2022-11-14T22:45:11.362Z,21.13
2022-11-14T22:47:40.554Z,20.23
2022-11-14T22:50:11.089Z,18.97
2022-11-14T22:52:40.595Z,20.43
2022-11-14T22:55:13.716Z,19.50
2022-11-14T22:57:44.781Z,19.77
2022-11-14T23:00:15.162Z,19.03
2022-11-14T23:02:43.110Z,18.33
2022-11-14T23:05:11.048Z,17.60
2022-11-14T23:07:40.622Z,19.40
2022-11-14T23:10:09.629Z,20.80
2022-11-14T23:12:37.686Z,19.10
2022-11-14T23:15:06.557Z,20.10
2022-11-14T23:17:34.495Z,19.03
2022-11-14T23:20:02.431Z,18.10
2022-11-14T23:22:30.831Z,19.43
2022-11-14T23:25:00.144Z,19.83
2022-11-14T23:27:28.220Z,17.20
2022-11-14T23:29:56.624Z,20.70
2022-11-14T23:32:24.629Z,16.80
2022-11-14T23:34:52.600Z,18.23
2022-11-14T23:37:20.640Z,17.57
2022-11-14T23:39:48.785Z,17.53
2022-11-14T23:42:18.092Z,18.30
2022-11-14T23:44:46.575Z,20.67
2022-11-14T23:47:15.172Z,17.33
2022-11-14T23:49:43.088Z,17.20
2022-11-14T23:52:11.564Z,16.67
2022-11-14T23:54:39.553Z,17.83
2022-11-14T23:57:07.539Z,16.23
2022-11-14T23:59:36.985Z,18.40
